createdAt,value
2019-02-28T00:01:23.342Z,5.30
2019-02-28T00:04:11.418Z,8.20
2019-02-28T00:06:40.462Z,4.00
2019-02-28T00:09:10.489Z,5.47
2019-02-28T00:11:58.519Z,4.90
2019-02-28T00:14:46.442Z,4.57
2019-02-28T00:17:15.772Z,4.30
2019-02-28T00:19:44.446Z,5.10
2019-02-28T00:25:25.756Z,5.03
2019-02-28T00:28:13.687Z,4.87
2019-02-28T00:31:01.853Z,4.87
2019-02-28T00:33:49.914Z,4.77
2019-02-28T00:36:37.956Z,5.30
2019-02-28T00:39:25.953Z,5.20
2019-02-28T00:48:14.370Z,5.30
2019-02-28T00:51:02.562Z,4.90
2019-02-28T00:53:50.518Z,5.40
2019-02-28T01:00:06.352Z,5.47
2019-02-28T01:05:48.442Z,5.20
2019-02-28T01:08:29.242Z,4.87
2019-02-28T01:11:10.359Z,4.07
2019-02-28T01:13:51.486Z,5.10
2019-02-28T01:16:41.362Z,4.77
2019-02-28T01:19:29.110Z,4.97
2019-02-28T01:25:47.370Z,5.33
2019-02-28T01:31:47.326Z,4.23
2019-02-28T01:34:35.620Z,4.67
2019-02-28T01:40:30.659Z,4.50
2019-02-28T01:43:18.814Z,3.83
2019-02-28T01:54:47.521Z,4.37
2019-02-28T01:57:35.470Z,4.27
2019-02-28T02:00:24.421Z,4.60
2019-02-28T02:03:13.526Z,4.13
2019-02-28T02:06:01.550Z,4.03
2019-02-28T02:08:49.718Z,4.83
2019-02-28T02:11:18.726Z,4.60
2019-02-28T02:14:07.455Z,5.40
2019-02-28T02:16:49.687Z,5.03
2019-02-28T02:19:29.997Z,4.83
2019-02-28T02:24:53.542Z,4.67
2019-02-28T02:30:17.117Z,4.30
2019-02-28T02:32:47.090Z,5.00
2019-02-28T02:35:16.667Z,4.47
2019-02-28T02:37:45.396Z,4.80
2019-02-28T02:40:14.258Z,4.70
2019-02-28T02:42:47.283Z,4.73
2019-02-28T02:45:13.726Z,5.00
2019-02-28T02:48:05.154Z,4.57
2019-02-28T02:50:51.405Z,5.20
2019-02-28T02:53:42.013Z,4.70
2019-02-28T03:02:56.804Z,5.47
2019-02-28T03:15:43.210Z,5.63
2019-02-28T03:22:15.565Z,5.30
2019-02-28T03:25:03.521Z,6.10
2019-02-28T03:30:44.835Z,6.30
2019-02-28T03:33:32.843Z,6.03
2019-02-28T03:36:15.596Z,6.08
2019-02-28T03:38:56.560Z,6.80
2019-02-28T03:48:01.017Z,6.70
2019-02-28T03:54:00.911Z,6.77
2019-02-28T04:00:00.498Z,7.07
2019-02-28T04:02:41.574Z,7.13
2019-02-28T04:05:28.133Z,6.57
2019-02-28T04:08:05.068Z,6.20
2019-02-28T04:10:45.791Z,6.67
2019-02-28T04:13:26.362Z,6.83
2019-02-28T04:16:26.436Z,7.03
2019-02-28T04:19:05.915Z,7.20
2019-02-28T04:24:47.792Z,7.70
2019-02-28T04:27:40.229Z,7.27
2019-02-28T04:30:25.449Z,8.17
2019-02-28T04:39:00.458Z,8.90
2019-02-28T04:41:48.404Z,8.90
2019-02-28T04:44:36.393Z,9.27
2019-02-28T04:47:24.635Z,7.00
2019-02-28T04:53:05.914Z,8.53
2019-02-28T04:58:46.994Z,8.40
2019-02-28T05:01:35.342Z,10.03
2019-02-28T05:04:23.278Z,9.33
2019-02-28T05:10:04.782Z,9.43
2019-02-28T05:12:54.550Z,9.50
2019-02-28T05:15:42.471Z,9.10
2019-02-28T05:18:30.518Z,11.00
2019-02-28T05:21:11.174Z,11.00
2019-02-28T05:23:52.258Z,10.07
2019-02-28T05:26:32.746Z,10.68
2019-02-28T05:29:14.345Z,11.23
2019-02-28T05:31:55.023Z,9.83
2019-02-28T05:34:54.615Z,10.33
2019-02-28T05:37:35.979Z,10.30
2019-02-28T05:40:40.595Z,11.57
2019-02-28T05:43:18.938Z,10.37
2019-02-28T05:46:03.278Z,10.90
2019-02-28T05:48:44.726Z,10.87
2019-02-28T05:51:27.139Z,10.33
2019-02-28T05:57:25.755Z,11.87
2019-02-28T06:00:07.286Z,11.97
2019-02-28T06:02:48.682Z,12.47
2019-02-28T06:08:48.697Z,12.10
2019-02-28T06:11:34.544Z,12.17
2019-02-28T06:17:20.604Z,14.47
2019-02-28T06:23:18.782Z,13.50
2019-02-28T06:26:00.664Z,13.73
2019-02-28T06:28:31.145Z,13.20
2019-02-28T06:31:01.646Z,13.10
2019-02-28T06:33:33.272Z,15.03
2019-02-28T06:36:01.862Z,14.70
2019-02-28T06:38:30.567Z,14.30
2019-02-28T06:40:59.250Z,14.47
2019-02-28T06:43:28.397Z,14.47
2019-02-28T06:45:57.363Z,16.00
2019-02-28T06:48:26.749Z,14.13
2019-02-28T06:50:55.597Z,14.18
2019-02-28T06:53:24.322Z,15.00
2019-02-28T06:55:57.053Z,15.70
2019-02-28T06:58:26.141Z,14.18
2019-02-28T07:00:55.162Z,14.03
2019-02-28T07:03:23.842Z,13.65
2019-02-28T07:05:52.629Z,15.38
2019-02-28T07:08:24.764Z,15.47
2019-02-28T07:10:51.693Z,15.85
2019-02-28T07:13:20.402Z,15.83
2019-02-28T07:15:49.156Z,15.85
2019-02-28T07:18:18.822Z,14.65
2019-02-28T07:20:48.553Z,15.68
2019-02-28T07:23:17.220Z,15.70
2019-02-28T07:25:47.383Z,17.13
2019-02-28T07:28:16.892Z,15.90
2019-02-28T07:30:45.947Z,15.85
2019-02-28T07:33:14.706Z,16.95
2019-02-28T07:35:43.733Z,16.25
2019-02-28T07:38:12.685Z,17.77
2019-02-28T07:40:41.829Z,17.25
2019-02-28T07:43:13.039Z,16.93
2019-02-28T07:45:42.138Z,19.07
2019-02-28T07:48:10.838Z,18.05
2019-02-28T07:50:39.647Z,18.50
2019-02-28T07:53:08.790Z,19.73
2019-02-28T07:55:40.068Z,18.50
2019-02-28T07:58:09.266Z,17.73
2019-02-28T08:00:37.973Z,18.32
2019-02-28T08:03:06.944Z,19.20
2019-02-28T08:05:35.641Z,17.90
2019-02-28T08:08:04.409Z,19.10
2019-02-28T08:10:33.410Z,17.35
2019-02-28T08:13:03.187Z,18.73
2019-02-28T08:15:33.337Z,19.77
2019-02-28T08:18:02.134Z,20.43
2019-02-28T08:20:33.835Z,19.77
2019-02-28T08:23:01.907Z,18.95
2019-02-28T08:25:30.593Z,21.15
2019-02-28T08:28:00.799Z,21.50
2019-02-28T08:30:30.003Z,19.95
2019-02-28T08:32:59.670Z,20.25
2019-02-28T08:35:33.986Z,21.52
2019-02-28T08:37:59.857Z,20.62
2019-02-28T08:40:28.780Z,21.82
2019-02-28T08:42:57.493Z,21.05
2019-02-28T08:45:32.703Z,22.48
2019-02-28T08:48:01.164Z,21.37
2019-02-28T08:50:30.485Z,22.93
2019-02-28T08:52:59.309Z,21.60
2019-02-28T08:55:29.247Z,20.90
2019-02-28T08:58:05.362Z,22.52
2019-02-28T09:00:32.916Z,22.85
2019-02-28T09:03:00.862Z,22.60
2019-02-28T09:05:30.243Z,22.62
2019-02-28T09:07:59.485Z,22.22
2019-02-28T09:10:28.320Z,22.82
2019-02-28T09:13:00.282Z,23.98
2019-02-28T09:15:31.035Z,21.73
2019-02-28T09:17:59.758Z,23.32
2019-02-28T09:20:28.477Z,23.90
2019-02-28T09:23:01.665Z,23.30
2019-02-28T09:25:27.914Z,22.90
2019-02-28T09:27:56.890Z,23.35
2019-02-28T09:30:29.643Z,23.90
2019-02-28T09:32:59.970Z,22.35
2019-02-28T09:35:29.064Z,24.57
2019-02-28T09:37:59.620Z,22.25
2019-02-28T09:40:29.430Z,23.30
2019-02-28T09:42:59.278Z,23.87
2019-02-28T09:45:28.076Z,24.25
2019-02-28T09:48:00.772Z,23.90
2019-02-28T09:50:28.452Z,23.15
2019-02-28T09:53:00.137Z,22.98
2019-02-28T09:55:34.320Z,24.67
2019-02-28T09:57:59.958Z,22.83
2019-02-28T10:00:29.285Z,23.70
2019-02-28T10:02:57.979Z,26.33
2019-02-28T10:05:26.686Z,21.80
2019-02-28T10:08:02.014Z,23.15
2019-02-28T10:10:29.024Z,24.60
2019-02-28T10:12:59.288Z,22.07
2019-02-28T10:15:28.369Z,23.70
2019-02-28T10:17:57.222Z,23.47
2019-02-28T10:20:28.525Z,22.80
2019-02-28T10:22:59.817Z,22.70
2019-02-28T10:25:28.544Z,22.25
2019-02-28T10:28:01.721Z,22.22
2019-02-28T10:30:32.309Z,21.77
2019-02-28T10:32:58.729Z,21.02
2019-02-28T10:35:28.019Z,21.77
2019-02-28T10:38:00.009Z,21.42
2019-02-28T10:40:28.598Z,21.85
2019-02-28T10:42:58.102Z,21.35
2019-02-28T10:45:27.067Z,22.87
2019-02-28T10:47:55.910Z,23.07
2019-02-28T10:50:25.920Z,20.40
2019-02-28T10:52:55.128Z,20.68
2019-02-28T10:55:23.957Z,19.90
2019-02-28T10:57:53.285Z,21.07
2019-02-28T11:00:32.528Z,20.92
2019-02-28T11:02:59.749Z,24.00
2019-02-28T11:05:30.286Z,20.17
2019-02-28T11:07:59.518Z,22.45
2019-02-28T11:10:34.926Z,21.80
2019-02-28T11:13:01.661Z,20.40
2019-02-28T11:15:30.734Z,20.90
2019-02-28T11:18:00.283Z,20.72
2019-02-28T11:20:29.153Z,23.73
2019-02-28T11:22:57.914Z,21.07
2019-02-28T11:25:27.616Z,19.92
2019-02-28T11:27:56.447Z,20.65
2019-02-28T11:30:25.458Z,22.02
2019-02-28T11:32:54.784Z,20.72
2019-02-28T11:35:24.015Z,20.68
2019-02-28T11:37:54.765Z,18.90
2019-02-28T11:40:24.306Z,20.57
2019-02-28T11:42:53.165Z,21.57
2019-02-28T11:45:25.552Z,20.15
2019-02-28T11:47:56.185Z,21.97
2019-02-28T11:50:25.026Z,20.88
2019-02-28T11:52:54.086Z,21.73
2019-02-28T11:55:23.443Z,20.48
2019-02-28T11:57:52.710Z,21.97
2019-02-28T12:00:24.683Z,22.50
2019-02-28T12:02:56.753Z,24.57
2019-02-28T12:05:24.166Z,20.92
2019-02-28T12:07:52.984Z,21.35
2019-02-28T12:10:22.446Z,21.10
2019-02-28T12:12:51.479Z,20.52
2019-02-28T12:15:22.630Z,19.80
2019-02-28T12:17:51.825Z,20.75
2019-02-28T12:20:25.967Z,20.08
2019-02-28T12:22:51.150Z,22.32
2019-02-28T12:25:20.170Z,20.50
2019-02-28T12:27:48.857Z,21.45
2019-02-28T12:30:25.149Z,19.57
2019-02-28T12:32:54.947Z,22.22
2019-02-28T12:35:23.701Z,21.02
2019-02-28T12:37:53.906Z,18.07
2019-02-28T12:40:25.902Z,21.33
2019-02-28T12:42:54.825Z,19.73
2019-02-28T12:45:26.288Z,19.10
2019-02-28T12:47:55.037Z,18.73
2019-02-28T12:50:23.969Z,20.77
2019-02-28T12:52:53.142Z,21.30
2019-02-28T12:55:22.262Z,19.12
2019-02-28T12:57:51.753Z,21.40
2019-02-28T13:00:23.463Z,21.30
2019-02-28T13:02:53.066Z,20.50
2019-02-28T13:05:22.176Z,20.10
2019-02-28T13:07:50.950Z,19.10
2019-02-28T13:10:26.862Z,20.50
2019-02-28T13:12:50.826Z,21.00
2019-02-28T13:15:19.595Z,20.85
2019-02-28T13:17:48.627Z,19.30
2019-02-28T13:20:19.337Z,19.50
2019-02-28T13:22:48.149Z,18.98
2019-02-28T13:25:19.377Z,20.77
2019-02-28T13:27:47.627Z,19.85
2019-02-28T13:30:18.082Z,20.40
2019-02-28T13:32:46.927Z,19.02
2019-02-28T13:35:17.642Z,21.40
2019-02-28T13:37:46.579Z,20.23
2019-02-28T13:40:15.545Z,21.00
2019-02-28T13:42:44.463Z,22.60
2019-02-28T13:45:22.201Z,21.07
2019-02-28T13:47:46.355Z,19.73
2019-02-28T13:50:17.468Z,20.97
2019-02-28T13:52:46.250Z,19.95
2019-02-28T13:55:18.892Z,20.68
2019-02-28T13:57:46.814Z,21.95
2019-02-28T14:00:24.610Z,20.97
2019-02-28T14:02:55.221Z,20.85
2019-02-28T14:05:24.046Z,22.05
2019-02-28T14:07:53.170Z,21.20
2019-02-28T14:10:23.046Z,21.25
2019-02-28T14:12:53.199Z,20.72
2019-02-28T14:15:25.254Z,20.12
2019-02-28T14:17:54.105Z,21.33
2019-02-28T14:20:24.477Z,21.40
2019-02-28T14:22:53.850Z,20.08
2019-02-28T14:25:23.734Z,20.43
2019-02-28T14:27:52.507Z,22.52
2019-02-28T14:30:22.796Z,21.75
2019-02-28T14:32:52.301Z,22.52
2019-02-28T14:35:22.917Z,20.90
2019-02-28T14:37:55.586Z,21.57
2019-02-28T14:40:22.670Z,21.75
2019-02-28T14:42:51.546Z,21.65
2019-02-28T14:45:20.923Z,21.05
2019-02-28T14:47:56.857Z,21.70
2019-02-28T14:50:22.909Z,21.35
2019-02-28T14:52:53.817Z,22.13
2019-02-28T14:55:23.152Z,21.53
2019-02-28T14:57:51.942Z,21.73
2019-02-28T15:00:23.605Z,21.45
2019-02-28T15:02:52.350Z,21.68
2019-02-28T15:05:21.666Z,23.30
2019-02-28T15:07:51.297Z,22.15
2019-02-28T15:10:20.151Z,22.93
2019-02-28T15:12:49.178Z,22.93
2019-02-28T15:15:19.036Z,21.20
2019-02-28T15:17:48.005Z,21.82
2019-02-28T15:20:17.117Z,21.57
2019-02-28T15:22:49.190Z,21.50
2019-02-28T15:25:23.322Z,20.48
2019-02-28T15:27:52.285Z,20.57
2019-02-28T15:30:27.026Z,20.60
2019-02-28T15:32:55.960Z,21.87
2019-02-28T15:35:28.089Z,23.18
2019-02-28T15:37:59.668Z,23.40
2019-02-28T15:40:30.839Z,21.82
2019-02-28T15:43:03.043Z,23.85
2019-02-28T15:45:36.188Z,22.90
2019-02-28T15:48:12.250Z,20.85
2019-02-28T15:50:51.271Z,20.87
2019-02-28T15:53:15.805Z,27.10
2019-02-28T15:55:44.599Z,23.20
2019-02-28T15:58:13.493Z,22.97
2019-02-28T16:00:42.420Z,20.70
2019-02-28T16:03:13.535Z,22.77
2019-02-28T16:05:44.764Z,21.48
2019-02-28T16:08:14.607Z,23.23
2019-02-28T16:10:52.861Z,21.95
2019-02-28T16:13:14.191Z,23.55
2019-02-28T16:15:46.146Z,23.73
2019-02-28T16:18:13.771Z,25.72
2019-02-28T16:20:45.350Z,25.10
2019-02-28T16:23:14.822Z,24.07
2019-02-28T16:25:46.798Z,23.97
2019-02-28T16:28:18.994Z,23.47
2019-02-28T16:30:47.689Z,24.20
2019-02-28T16:33:16.408Z,25.62
2019-02-28T16:35:46.664Z,26.03
2019-02-28T16:38:15.894Z,24.27
2019-02-28T16:40:44.576Z,25.77
2019-02-28T16:43:13.798Z,25.33
2019-02-28T16:45:45.837Z,27.73
2019-02-28T16:48:19.912Z,25.87
2019-02-28T16:50:50.603Z,27.17
2019-02-28T16:53:19.841Z,26.47
2019-02-28T16:55:51.018Z,27.03
2019-02-28T16:58:22.089Z,26.87
2019-02-28T17:00:50.607Z,25.77
2019-02-28T17:03:19.276Z,25.50
2019-02-28T17:05:48.092Z,26.40
2019-02-28T17:08:18.707Z,27.37
2019-02-28T17:10:47.981Z,29.57
2019-02-28T17:13:32.134Z,27.87
2019-02-28T17:16:13.595Z,26.10
2019-02-28T17:18:44.586Z,28.50
2019-02-28T17:21:17.917Z,29.10
2019-02-28T17:23:45.298Z,27.53
2019-02-28T17:26:14.417Z,25.13
2019-02-28T17:28:49.637Z,25.60
2019-02-28T17:31:26.886Z,23.30
2019-02-28T17:33:58.039Z,26.67
2019-02-28T17:36:26.717Z,24.63
2019-02-28T17:38:55.711Z,24.97
2019-02-28T17:41:28.676Z,25.63
2019-02-28T17:44:52.396Z,25.07
2019-02-28T17:47:52.662Z,25.67
2019-02-28T17:50:29.082Z,25.43
2019-02-28T17:53:45.645Z,24.70
2019-02-28T17:56:40.799Z,22.33
2019-02-28T17:59:42.102Z,22.83
2019-02-28T18:02:28.422Z,22.97
2019-02-28T18:05:36.521Z,23.03
2019-02-28T18:08:37.548Z,23.63
2019-02-28T18:11:45.642Z,24.87
2019-02-28T18:14:52.904Z,23.60
2019-02-28T18:18:08.886Z,23.60
2019-02-28T18:21:04.685Z,23.60
2019-02-28T18:24:09.063Z,21.05
2019-02-28T18:27:31.082Z,23.67
2019-02-28T18:30:50.939Z,22.43
2019-02-28T18:33:20.228Z,22.67
2019-02-28T18:35:48.893Z,21.03
2019-02-28T18:38:17.811Z,23.57
2019-02-28T18:40:46.583Z,23.10
2019-02-28T18:43:15.329Z,22.13
2019-02-28T18:45:44.093Z,22.10
2019-02-28T18:48:14.661Z,23.90
2019-02-28T18:50:44.102Z,24.20
2019-02-28T18:53:12.823Z,27.20
2019-02-28T18:55:42.548Z,24.43
2019-02-28T18:58:11.808Z,24.43
2019-02-28T19:00:40.638Z,23.53
2019-02-28T19:03:11.372Z,24.73
2019-02-28T19:05:40.149Z,24.17
2019-02-28T19:08:09.622Z,24.97
2019-02-28T19:10:39.447Z,24.80
2019-02-28T19:13:08.683Z,26.30
2019-02-28T19:15:37.891Z,26.47
2019-02-28T19:18:06.697Z,26.30
2019-02-28T19:20:35.375Z,27.67
2019-02-28T19:23:04.247Z,24.43
2019-02-28T19:25:32.921Z,25.67
2019-02-28T19:28:02.655Z,25.50
2019-02-28T19:30:31.906Z,25.80
2019-02-28T19:33:00.781Z,25.20
2019-02-28T19:35:31.564Z,25.83
2019-02-28T19:38:00.274Z,24.27
2019-02-28T19:40:29.133Z,27.07
2019-02-28T19:42:57.911Z,26.10
2019-02-28T19:45:26.733Z,28.60
2019-02-28T19:47:55.691Z,25.47
2019-02-28T19:50:24.742Z,26.67
2019-02-28T19:52:54.212Z,26.23
2019-02-28T19:55:23.852Z,27.90
2019-02-28T19:57:52.641Z,26.40
2019-02-28T20:00:23.248Z,25.37
2019-02-28T20:02:52.008Z,27.07
2019-02-28T20:05:21.131Z,26.27
2019-02-28T20:07:50.172Z,28.13
2019-02-28T20:10:19.342Z,24.70
2019-02-28T20:12:48.128Z,27.70
2019-02-28T20:15:17.113Z,25.73
2019-02-28T20:17:46.212Z,25.93
2019-02-28T20:20:16.404Z,27.90
2019-02-28T20:22:45.243Z,26.37
2019-02-28T20:25:14.840Z,25.80
2019-02-28T20:27:43.606Z,25.83
2019-02-28T20:30:14.572Z,26.50
2019-02-28T20:32:43.397Z,26.17
2019-02-28T20:35:12.437Z,25.90
2019-02-28T20:37:41.140Z,25.23
2019-02-28T20:40:13.962Z,26.17
2019-02-28T20:42:42.500Z,27.50
2019-02-28T20:45:11.586Z,25.47
2019-02-28T20:47:40.317Z,23.77
2019-02-28T20:50:18.342Z,24.77
2019-02-28T20:52:47.470Z,27.23
2019-02-28T20:55:16.368Z,25.57
2019-02-28T20:57:45.035Z,24.67
2019-02-28T21:00:15.697Z,23.20
2019-02-28T21:02:44.751Z,23.70
2019-02-28T21:05:13.471Z,24.83
2019-02-28T21:07:42.193Z,23.33
2019-02-28T21:10:11.449Z,24.17
2019-02-28T21:12:40.430Z,22.90
2019-02-28T21:15:10.239Z,23.20
2019-02-28T21:17:39.101Z,24.03
2019-02-28T21:20:09.073Z,24.20
2019-02-28T21:22:38.597Z,22.70
2019-02-28T21:25:09.195Z,23.03
2019-02-28T21:27:37.925Z,22.53
2019-02-28T21:30:14.674Z,22.20
2019-02-28T21:32:43.583Z,22.53
2019-02-28T21:35:12.825Z,22.00
2019-02-28T21:37:41.643Z,23.70
2019-02-28T21:40:11.689Z,22.37
2019-02-28T21:42:40.450Z,21.65
2019-02-28T21:45:10.206Z,19.47
2019-02-28T21:47:39.174Z,19.33
2019-02-28T21:50:09.769Z,18.70
2019-02-28T21:52:38.982Z,19.07
2019-02-28T21:55:08.973Z,18.43
2019-02-28T21:57:37.669Z,21.23
2019-02-28T22:00:10.619Z,18.17
2019-02-28T22:02:45.163Z,19.27
2019-02-28T22:05:14.268Z,19.80
2019-02-28T22:07:44.486Z,17.73
2019-02-28T22:10:13.587Z,16.83
2019-02-28T22:12:42.313Z,18.30
2019-02-28T22:15:13.704Z,18.07
2019-02-28T22:17:42.625Z,16.57
2019-02-28T22:20:12.417Z,16.82
2019-02-28T22:22:41.443Z,15.57
2019-02-28T22:25:10.907Z,17.00
2019-02-28T22:27:40.071Z,15.97
2019-02-28T22:30:49.590Z,15.83
2019-02-28T22:33:27.537Z,16.37
2019-02-28T22:35:57.649Z,16.83
2019-02-28T22:38:26.342Z,16.73
2019-02-28T22:40:55.121Z,15.43
2019-02-28T22:43:23.908Z,14.73
2019-02-28T22:45:52.821Z,14.60
2019-02-28T22:48:21.638Z,15.13
2019-02-28T22:50:50.655Z,14.63
2019-02-28T22:53:19.331Z,16.30
2019-02-28T22:55:48.231Z,15.80
2019-02-28T22:58:17.079Z,14.13
2019-02-28T23:01:09.611Z,14.63
2019-02-28T23:03:39.062Z,13.37
2019-02-28T23:06:08.064Z,15.20
2019-02-28T23:08:38.628Z,15.13
2019-02-28T23:11:08.411Z,15.90
2019-02-28T23:13:37.343Z,15.80
2019-02-28T23:16:06.262Z,15.00
2019-02-28T23:18:35.020Z,13.77
2019-02-28T23:21:04.116Z,15.97
2019-02-28T23:23:33.403Z,15.53
2019-02-28T23:26:07.740Z,15.77
2019-02-28T23:28:41.818Z,15.10
2019-02-28T23:31:54.537Z,16.10
2019-02-28T23:34:41.581Z,15.67
2019-02-28T23:37:11.463Z,15.60
2019-02-28T23:39:40.120Z,15.63
2019-02-28T23:42:09.128Z,15.57
2019-02-28T23:44:38.241Z,15.40
2019-02-28T23:47:06.918Z,17.50
2019-02-28T23:49:35.585Z,16.13
2019-02-28T23:52:04.829Z,14.37
2019-02-28T23:54:33.573Z,16.03
2019-02-28T23:57:02.247Z,16.60
2019-02-28T23:59:31.060Z,15.73
